KMKC

Charles B. Wheeler Downtown Airport

Airport
ICAO code
KMKC
Summary
ICAO Region
NAM
ICAO Territory
Location

Kansas City, Missouri,

Serving
Kansas City, Missouri
Coordinates
39° 7' 24" N , 94° 35' 34" W
KCC
Metar
Observation
KMKC 070754Z 36009KT 10SM CLR 11/04 A3035 RMK AO2 SLP273 T01110039
Station
Kansas City, Kansas City Downtown Airport
Date/Time
2022-10-07 07:54:00
Wind direction
360°
Wind speed
09 kts
Lowest cloud amount
n/a
Temperature
11.1°C
Dew point
3.9°C
Humidity
61%
Weather condition
n/a

Description

Charles B. Wheeler Downtown Airport, also known as Kansas City Downtown Airport, is a public airport located in Kansas City, Missouri.

Climatology

Humid continental climate (Köppen climate classification Dfa) - characterized by four seasons: cold, windy, snowy winters, mild springs, hot, humid summers, and crisp and relatively short autumns. Precipitation reaches its lowest in January and February and peaks in summer and latter half of spring.

Runways

Designator Length Width Surface Rops
3/21 1539 46 ASP Yes/Yes
1/19 2134 46 CON Yes/Yes

Airport map

Aerial View

SKYbrary Partners:

Safety knowledge contributed by: